sensor_id;sensor_type;location;lat;lon;timestamp;pressure;altitude;pressure_sealevel;temperature;humidity
61740;BME280;47645;45.288;12.038;2023-10-31T00:01:21;1001.1228770344256;;;17.72578125;100
61740;BME280;47645;45.288;12.038;2023-10-31T00:11:22;1001.4683840416313;;;17.51171875;100
61740;BME280;47645;45.288;12.038;2023-10-31T00:21:23;1001.3810110114084;;;17.623828125;100
61740;BME280;47645;45.288;12.038;2023-10-31T00:31:24;1001.2223226515763;;;17.419921875;100
61740;BME280;47645;45.288;12.038;2023-10-31T00:41:25;1001.1595345403723;;;17.51171875;100
61740;BME280;47645;45.288;12.038;2023-10-31T00:51:26;1001.1817972951125;;;17.323046875;100
61740;BME280;47645;45.288;12.038;2023-10-31T01:01:27;1000.9797716040812;;;17.1650390625;100
61740;BME280;47645;45.288;12.038;2023-10-31T01:11:28;1001.0670526112433;;;17.1802734375;100
61740;BME280;47645;45.288;12.038;2023-10-31T01:21:29;1000.7987396925248;;;16.981640625;100
61740;BME280;47645;45.288;12.038;2023-10-31T01:31:30;1000.888051393542;;;16.8388671875;100
61740;BME280;47645;45.288;12.038;2023-10-31T01:41:31;1000.9744904490528;;;16.915234375;100
61740;BME280;47645;45.288;12.038;2023-10-31T01:51:32;1001.0218395390684;;;16.701171875;100
61740;BME280;47645;45.288;12.038;2023-10-31T02:01:37;1001.0541553811754;;;16.563671875;100
61740;BME280;47645;45.288;12.038;2023-10-31T02:11:34;1000.9721694915075;;;16.476953125;100
61740;BME280;47645;45.288;12.038;2023-10-31T02:21:38;1000.5841756960723;;;16.5025390625;100
61740;BME280;47645;45.288;12.038;2023-10-31T02:31:36;1000.9303532237178;;;16.4056640625;100
61740;BME280;47645;45.288;12.038;2023-10-31T02:41:37;1000.9233010563786;;;16.4056640625;100
61740;BME280;47645;45.288;12.038;2023-10-31T02:51:38;1001.0872239992357;;;16.28828125;100
61740;BME280;47645;45.288;12.038;2023-10-31T03:01:39;1000.8518124330363;;;16.3291015625;100
61740;BME280;47645;45.288;12.038;2023-10-31T03:11:40;1000.7953338712709;;;16.359765625;100
61740;BME280;47645;45.288;12.038;2023-10-31T03:21:41;1000.6876994647606;;;16.3138671875;100
61740;BME280;47645;45.288;12.038;2023-10-31T03:31:42;1000.6365656937382;;;16.2068359375;100
61740;BME280;47645;45.288;12.038;2023-10-31T03:41:43;1000.5427291794216;;;16.15078125;100
61740;BME280;47645;45.288;12.038;2023-10-31T03:51:44;1000.3604869144198;;;16.1966796875;100
61740;BME280;47645;45.288;12.038;2023-10-31T04:01:45;1000.4427175231913;;;16.28828125;100
61740;BME280;47645;45.288;12.038;2023-10-31T04:11:46;1000.2496120341824;;;16.2375;100
61740;BME280;47645;45.288;12.038;2023-10-31T04:21:47;1000.0310705662398;;;16.155859375;100
61740;BME280;47645;45.288;12.038;2023-10-31T04:31:48;999.7648665264029;;;16.1048828125;100
61740;BME280;47645;45.288;12.038;2023-10-31T04:41:50;999.9886979031695;;;16.17109375;100
61740;BME280;47645;45.288;12.038;2023-10-31T04:51:50;999.8327097467808;;;16.1865234375;100
61740;BME280;47645;45.288;12.038;2023-10-31T05:01:51;999.5772952730716;;;16.278125;100
61740;BME280;47645;45.288;12.038;2023-10-31T05:11:52;999.0248040643088;;;16.26796875;100
61740;BME280;47645;45.288;12.038;2023-10-31T05:21:53;998.8669030236331;;;16.24765625;100
61740;BME280;47645;45.288;12.038;2023-10-31T05:31:54;998.7444417589737;;;16.2375;100
61740;BME280;47645;45.288;12.038;2023-10-31T05:41:55;998.7045001591474;;;16.5025390625;100
61740;BME280;47645;45.288;12.038;2023-10-31T05:51:56;998.5616036501654;;;16.5279296875;100
61740;BME280;47645;45.288;12.038;2023-10-31T06:01:56;998.6523726273622;;;16.5482421875;100
61740;BME280;47645;45.288;12.038;2023-10-31T06:11:57;998.6683953590264;;;16.5482421875;100
61740;BME280;47645;45.288;12.038;2023-10-31T06:21:59;998.8216460215987;;;16.5228515625;100
61740;BME280;47645;45.288;12.038;2023-10-31T06:31:59;999.0615190416636;;;16.5126953125;100
61740;BME280;47645;45.288;12.038;2023-10-31T06:42:00;999.0049770107306;;;16.573828125;100
61740;BME280;47645;45.288;12.038;2023-10-31T06:52:01;999.5296278871443;;;16.563671875;100
61740;BME280;47645;45.288;12.038;2023-10-31T07:02:02;999.5087151788061;;;16.476953125;100
61740;BME280;47645;45.288;12.038;2023-10-31T07:12:04;999.5172669780338;;;16.6248046875;100
61740;BME280;47645;45.288;12.038;2023-10-31T07:22:05;999.8504825601945;;;16.777734375;100
61740;BME280;47645;45.288;12.038;2023-10-31T07:32:06;999.9996430099382;;;16.9408203125;100
61740;BME280;47645;45.288;12.038;2023-10-31T07:42:06;1000.0160900666623;;;17.12421875;100
61740;BME280;47645;45.288;12.038;2023-10-31T07:52:07;1000.1947419309075;;;17.328125;100
61740;BME280;47645;45.288;12.038;2023-10-31T08:02:09;1000.4888223319239;;;17.5931640625;100
61740;BME280;47645;45.288;12.038;2023-10-31T08:12:10;1000.3762792507991;;;17.74609375;98.28984115641445
61740;BME280;47645;45.288;12.038;2023-10-31T08:22:10;1000.5158946188718;;;17.944921875;98.46839715354547
61740;BME280;47645;45.288;12.038;2023-10-31T08:32:12;1000.823941450184;;;18.051953125;98.46017000142139
61740;BME280;47645;45.288;12.038;2023-10-31T08:42:13;1001.0161586640884;;;17.93984375;94.69532575097448
61740;BME280;47645;45.288;12.038;2023-10-31T08:52:14;1000.9413812546774;;;18.4189453125;98.17744214489771
61740;BME280;47645;45.288;12.038;2023-10-31T09:02:15;1001.2227191613549;;;18.571875;88.223491771519
61740;BME280;47645;45.288;12.038;2023-10-31T09:12:16;1001.6117037632093;;;19.0255859375;92.27695681999137
61740;BME280;47645;45.288;12.038;2023-10-31T09:22:17;1001.6534587050668;;;18.98984375;96.9454126995912
61740;BME280;47645;45.288;12.038;2023-10-31T09:32:18;1001.5706103365518;;;18.8369140625;94.3495948782464
61740;BME280;47645;45.288;12.038;2023-10-31T09:42:19;1001.6548031434069;;;18.79609375;94.92996436317314
61740;BME280;47645;45.288;12.038;2023-10-31T09:52:22;1001.5174087549437;;;18.9541015625;85.74822021692945
61740;BME280;47645;45.288;12.038;2023-10-31T10:02:22;1001.3618524962781;;;19.2751953125;87.40833544219328
61740;BME280;47645;45.288;12.038;2023-10-31T10:12:23;1001.46249902965;;;19.6830078125;84.11650828323594
61740;BME280;47645;45.288;12.038;2023-10-31T10:22:28;1001.3934620724094;;;19.10703125;85.44832015827502
61740;BME280;47645;45.288;12.038;2023-10-31T10:32:25;1001.3467192117548;;;18.5310546875;88.60282656684282
61740;BME280;47645;45.288;12.038;2023-10-31T10:42:32;1001.2500290427679;;;17.7052734375;93.96292035049069
61740;BME280;47645;45.288;12.038;2023-10-31T10:52:29;1001.3246959779035;;;17.4708984375;88.31624302041385
61740;BME280;47645;45.288;12.038;2023-10-31T11:02:30;1001.2645849464394;;;17.526953125;94.46364822838203
61740;BME280;47645;45.288;12.038;2023-10-31T11:12:30;1001.2708107830641;;;17.8888671875;94.296375613348
61740;BME280;47645;45.288;12.038;2023-10-31T11:22:38;1001.796964390172;;;16.380078125;94.1684489067628
61740;BME280;47645;45.288;12.038;2023-10-31T11:32:32;1001.7929691207294;;;16.8796875;93.99763733991055
61740;BME280;47645;45.288;12.038;2023-10-31T11:42:36;1001.833270660507;;;17.3943359375;90.50510975488002
61740;BME280;47645;45.288;12.038;2023-10-31T11:52:34;1002.0044762303893;;;17.3486328125;89.78690949903748
61740;BME280;47645;45.288;12.038;2023-10-31T12:02:35;1002.1571626331393;;;17.399609375;89.29703938453162
61740;BME280;47645;45.288;12.038;2023-10-31T12:12:36;1002.4034284395543;;;17.1599609375;88.22679213069574
61740;BME280;47645;45.288;12.038;2023-10-31T12:22:38;1002.471947118581;;;16.996875;91.81661938801685
61740;BME280;47645;45.288;12.038;2023-10-31T12:32:40;1002.5698926657956;;;16.7470703125;96.36568672615337
61740;BME280;47645;45.288;12.038;2023-10-31T12:42:40;1002.8048073102104;;;16.4310546875;99.10126607238682
61740;BME280;47645;45.288;12.038;2023-10-31T12:52:49;1003.0610874709937;;;15.416796875;100
61740;BME280;47645;45.288;12.038;2023-10-31T13:02:42;1003.276167676385;;;15.3505859375;100
61740;BME280;47645;45.288;12.038;2023-10-31T13:12:44;1003.2307197563225;;;15.5646484375;100
61740;BME280;47645;45.288;12.038;2023-10-31T13:22:44;1003.5554383618955;;;16.13046875;98.08477702200756
61740;BME280;47645;45.288;12.038;2023-10-31T13:32:45;1003.7171524633642;;;16.680859375;91.68618694992703
61740;BME280;47645;45.288;12.038;2023-10-31T13:42:56;1003.8883764536397;;;17.2873046875;89.29563076166102
61740;BME280;47645;45.288;12.038;2023-10-31T13:52:48;1004.0998894849677;;;17.837890625;84.57312885359781
61740;BME280;47645;45.288;12.038;2023-10-31T14:02:48;1004.3895735051167;;;18.148828125;81.98842023606392
61740;BME280;47645;45.288;12.038;2023-10-31T14:12:49;1004.6327722357905;;;18.3271484375;81.60942446397719
61740;BME280;47645;45.288;12.038;2023-10-31T14:22:51;1004.9730064445877;;;18.1640625;78.89603787136973
61740;BME280;47645;45.288;12.038;2023-10-31T14:32:52;1005.2160313227342;;;18.1845703125;84.7939401975475
61740;BME280;47645;45.288;12.038;2023-10-31T14:42:54;1005.5104084934152;;;17.848046875;79.98418758347292
61740;BME280;47645;45.288;12.038;2023-10-31T14:52:54;1005.801867231099;;;17.6595703125;80.66184584569545
61740;BME280;47645;45.288;12.038;2023-10-31T15:02:55;1005.9449716712423;;;17.5015625;85.3662323129801
61740;BME280;47645;45.288;12.038;2023-10-31T15:12:56;1006.1484175494459;;;17.53203125;88.34043041073494
61740;BME280;47645;45.288;12.038;2023-10-31T15:22:58;1006.4247879794505;;;17.2771484375;85.60167534748909
61740;BME280;47645;45.288;12.038;2023-10-31T15:32:59;1006.5982634365441;;;17.23125;95.37342829472107
61740;BME280;47645;45.288;12.038;2023-10-31T15:43:00;1006.6150604477194;;;17.0326171875;95.27735285268396
61740;BME280;47645;45.288;12.038;2023-10-31T15:53:01;1006.7953008030269;;;16.6197265625;91.60923113638714
61740;BME280;47645;45.288;12.038;2023-10-31T16:03:03;1006.8889502104096;;;16.5431640625;97.47338213330649
61740;BME280;47645;45.288;12.038;2023-10-31T16:13:03;1006.9815147636997;;;16.5431640625;100
61740;BME280;47645;45.288;12.038;2023-10-31T16:23:04;1007.2548855687518;;;16.5431640625;100
61740;BME280;47645;45.288;12.038;2023-10-31T16:33:05;1007.4646642914697;;;16.3138671875;100
61740;BME280;47645;45.288;12.038;2023-10-31T16:43:06;1007.7250958791323;;;16.2119140625;100
61740;BME280;47645;45.288;12.038;2023-10-31T16:53:07;1007.8415370932344;;;16.0947265625;100
61740;BME280;47645;45.288;12.038;2023-10-31T17:03:12;1008.0105163888405;;;15.41171875;99.55779645066173
61740;BME280;47645;45.288;12.038;2023-10-31T17:13:09;1008.3018456834895;;;15.105859375;100
61740;BME280;47645;45.288;12.038;2023-10-31T17:23:10;1008.3402893179303;;;15.330078125;100
61740;BME280;47645;45.288;12.038;2023-10-31T17:33:12;1008.5011859442956;;;15.3607421875;100
61740;BME280;47645;45.288;12.038;2023-10-31T17:43:12;1008.65092497855;;;15.325;100
61740;BME280;47645;45.288;12.038;2023-10-31T17:53:13;1008.7591418334176;;;15.0498046875;100
61740;BME280;47645;45.288;12.038;2023-10-31T18:03:14;1008.8743205601921;;;15.0650390625;100
61740;BME280;47645;45.288;12.038;2023-10-31T18:13:15;1009.0545229671322;;;14.9173828125;100
61740;BME280;47645;45.288;12.038;2023-10-31T18:23:15;1009.2557593383129;;;14.453515625;100
61740;BME280;47645;45.288;12.038;2023-10-31T18:33:16;1009.6801447481039;;;14.8765625;100
61740;BME280;47645;45.288;12.038;2023-10-31T18:43:18;1009.9880329823234;;;14.7033203125;100
61740;BME280;47645;45.288;12.038;2023-10-31T18:53:18;1009.9321673867893;;;13.9591796875;100
61740;BME280;47645;45.288;12.038;2023-10-31T19:03:20;1010.2480285998914;;;14.443359375;100
61740;BME280;47645;45.288;12.038;2023-10-31T19:13:21;1010.279473593863;;;14.443359375;100
61740;BME280;47645;45.288;12.038;2023-10-31T19:23:21;1010.4521894235842;;;14.376953125;100
61740;BME280;47645;45.288;12.038;2023-10-31T19:33:22;1010.6323702008303;;;14.055859375;100
61740;BME280;47645;45.288;12.038;2023-10-31T19:43:23;1010.4930244009215;;;14.0662109375;100
61740;BME280;47645;45.288;12.038;2023-10-31T19:53:24;1010.502490986357;;;13.831640625;100
61740;BME280;47645;45.288;12.038;2023-10-31T20:03:25;1010.6795696479984;;;13.8876953125;100
61740;BME280;47645;45.288;12.038;2023-10-31T20:13:26;1011.1314651877299;;;13.7552734375;100
61740;BME280;47645;45.288;12.038;2023-10-31T20:23:27;1011.2317807016808;;;13.60234375;100
61740;BME280;47645;45.288;12.038;2023-10-31T20:33:28;1011.2521682338125;;;13.4646484375;100
61740;BME280;47645;45.288;12.038;2023-10-31T20:43:29;1011.2759776264227;;;13.4443359375;100
61740;BME280;47645;45.288;12.038;2023-10-31T20:53:30;1011.3074989040631;;;13.4341796875;100
61740;BME280;47645;45.288;12.038;2023-10-31T21:03:33;1011.3020485099323;;;13.3322265625;100
61740;BME280;47645;45.288;12.038;2023-10-31T21:13:32;1011.3546860574467;;;13.2150390625;100
61740;BME280;47645;45.288;12.038;2023-10-31T21:23:34;1011.4915344165898;;;13.0671875;100
61740;BME280;47645;45.288;12.038;2023-10-31T21:33:33;1011.8638223498507;;;12.5064453125;100
61740;BME280;47645;45.288;12.038;2023-10-31T21:43:35;1011.8766512738072;;;12.878515625;100
61740;BME280;47645;45.288;12.038;2023-10-31T21:53:35;1011.9376528325457;;;12.4810546875;100
61740;BME280;47645;45.288;12.038;2023-10-31T22:03:36;1012.0385780864476;;;12.674609375;100
61740;BME280;47645;45.288;12.038;2023-10-31T22:13:38;1012.232386260602;;;12.4861328125;100
61740;BME280;47645;45.288;12.038;2023-10-31T22:23:39;1012.1840360823495;;;12.4759765625;100
61740;BME280;47645;45.288;12.038;2023-10-31T22:33:38;1012.3229222478857;;;11.915234375;100
61740;BME280;47645;45.288;12.038;2023-10-31T22:43:40;1012.3966709418202;;;11.3953125;100
61740;BME280;47645;45.288;12.038;2023-10-31T22:53:41;1012.5851390266266;;;12.108984375;100
61740;BME280;47645;45.288;12.038;2023-10-31T23:03:41;1012.8444507442147;;;11.8541015625;100
61740;BME280;47645;45.288;12.038;2023-10-31T23:13:41;1012.9418398337581;;;11.798046875;100
61740;BME280;47645;45.288;12.038;2023-10-31T23:23:42;1012.8470503063577;;;11.583984375;100
61740;BME280;47645;45.288;12.038;2023-10-31T23:33:44;1012.9033648333669;;;11.7572265625;100
61740;BME280;47645;45.288;12.038;2023-10-31T23:43:44;1012.9699068320643;;;11.69609375;100
61740;BME280;47645;45.288;12.038;2023-10-31T23:53:45;1012.9271744295502;;;11.456640625;100
